الصفحة الرئيسية
METAR-TAF:

METAR-TAF

مطار :

أنتاناناريفو, مدغشقر

دائرة عرض: 18-48S, خط طول: 047-29E, ارتفاع: 1279 متر

مراقبة الطقس الحالي

تاريخ ووقت الإصدار 33 دقيقة قبل الساعة 02:30UTC
ريح 4 عقدة من الشمال/الشمال الغربي
درجة الحرارة 17°درجة مئوية
الرطوبة 94%
ضغط 1017 hPa
الرؤية 10 كم أو أكثر
غيوم قليلة على ارتفاع 1000 قدم
غيوم مفككة على ارتفاع 2000 قدم

METAR: FMMI 220230Z 33004KT 9999 FEW010 BKN020 17/16 Q1017 NOSIG

زمن: 06:03 (03:03 UTC)

توقعات

تاريخ ووقت الإصدار 4ساعات و 3 دقيقة قبل الساعة 23:00UTC
التوقعات صالحة من22 الساعة 00 UTC إلى 23 الساعة 06 UTC
ريح 8 عقدة من الشرق/الجنوب الشرقي
الرؤية 10 كم أو أكثر
غيوم قليلة على ارتفاع 1000 قدم
غيوم مفككة على ارتفاع 2000 قدم
نظرية الاحتمالات 30%
من 22 الساعة 02 UTC إلى 22 الساعة 06 UTC
الرؤية: 0800 متر
غيوم مفككة على ارتفاع 700 قدم
ضباب
نظرية الاحتمالات 30% :
مؤقت
من 22 الساعة 15 UTC إلى 22 الساعة 20 UTC
الرؤية: 4500 متر
عاصفة رعدية, مطر

TAF: FMMI 212300Z 2200/2306 12008KT 9999 FEW010 BKN020 PROB30 2202/2206 0800 FG BKN007 PROB30 TEMPO 2215/2220 4500 TSRA

أرصاد الطقس والتوقعات من أكثر من 4000 مطار (تقارير الطقس للمطار METAR والتنبؤ بالطقس بالمطارTAF).

المحطات المتاحة هي النقط الصفراء والحمراء على الخريطة.

حرك المؤشر فوق النقطة لمعرفة اسم المحطة.

ثم انقر لمعرفة أرصاد وتوقعات الطقس.

لتغيير الخارطة: اضغط على الأزرار الخضراء مع رمز الصليب الأسود للتكبير. على الزر الأخضر مع شرطة للتصغير، أو على الأسهم الخضراء للخرائط المجاورة.


METAR-TAF: